sensor_id;sensor_type;location;lat;lon;timestamp;P1;durP1;ratioP1;P2;durP2;ratioP2
71080;SDS011;58740;50.672;18.690;2022-07-23T00:00:33;16.40;;;11.70;;
71080;SDS011;58740;50.672;18.690;2022-07-23T00:03:06;20.70;;;14.70;;
71080;SDS011;58740;50.672;18.690;2022-07-23T00:05:34;19.60;;;13.50;;
71080;SDS011;58740;50.672;18.690;2022-07-23T00:08:05;21.60;;;14.40;;
71080;SDS011;58740;50.672;18.690;2022-07-23T00:10:41;21.60;;;14.20;;
71080;SDS011;58740;50.672;18.690;2022-07-23T00:13:09;18.20;;;12.70;;
71080;SDS011;58740;50.672;18.690;2022-07-23T00:15:37;19.00;;;13.20;;
71080;SDS011;58740;50.672;18.690;2022-07-23T00:18:04;20.40;;;13.40;;
71080;SDS011;58740;50.672;18.690;2022-07-23T00:20:32;20.90;;;12.70;;
71080;SDS011;58740;50.672;18.690;2022-07-23T00:23:00;18.00;;;13.00;;
71080;SDS011;58740;50.672;18.690;2022-07-23T00:25:28;18.90;;;12.30;;
71080;SDS011;58740;50.672;18.690;2022-07-23T00:27:58;17.00;;;11.20;;
71080;SDS011;58740;50.672;18.690;2022-07-23T00:30:27;18.30;;;11.80;;
71080;SDS011;58740;50.672;18.690;2022-07-23T00:33:01;17.20;;;11.00;;
71080;SDS011;58740;50.672;18.690;2022-07-23T00:35:34;18.00;;;11.20;;
71080;SDS011;58740;50.672;18.690;2022-07-23T00:38:04;16.80;;;11.80;;
71080;SDS011;58740;50.672;18.690;2022-07-23T00:40:33;18.10;;;10.90;;
71080;SDS011;58740;50.672;18.690;2022-07-23T00:43:01;19.30;;;11.80;;
71080;SDS011;58740;50.672;18.690;2022-07-23T00:45:29;18.30;;;11.20;;
71080;SDS011;58740;50.672;18.690;2022-07-23T00:47:58;16.20;;;11.30;;
71080;SDS011;58740;50.672;18.690;2022-07-23T00:50:27;17.80;;;11.40;;
71080;SDS011;58740;50.672;18.690;2022-07-23T00:52:55;18.70;;;11.20;;
71080;SDS011;58740;50.672;18.690;2022-07-23T00:55:23;19.20;;;12.80;;
71080;SDS011;58740;50.672;18.690;2022-07-23T00:57:52;19.00;;;12.00;;
71080;SDS011;58740;50.672;18.690;2022-07-23T01:00:21;16.60;;;11.10;;
71080;SDS011;58740;50.672;18.690;2022-07-23T01:02:49;16.80;;;11.70;;
71080;SDS011;58740;50.672;18.690;2022-07-23T01:05:17;17.50;;;12.00;;
71080;SDS011;58740;50.672;18.690;2022-07-23T01:07:50;17.70;;;11.50;;
71080;SDS011;58740;50.672;18.690;2022-07-23T01:10:24;18.40;;;11.90;;
71080;SDS011;58740;50.672;18.690;2022-07-23T01:13:06;18.30;;;11.80;;
71080;SDS011;58740;50.672;18.690;2022-07-23T01:15:37;15.10;;;11.50;;
71080;SDS011;58740;50.672;18.690;2022-07-23T01:18:07;18.30;;;11.80;;
71080;SDS011;58740;50.672;18.690;2022-07-23T01:20:36;16.30;;;11.40;;
71080;SDS011;58740;50.672;18.690;2022-07-23T01:23:04;18.80;;;10.90;;
71080;SDS011;58740;50.672;18.690;2022-07-23T01:25:32;16.10;;;10.70;;
71080;SDS011;58740;50.672;18.690;2022-07-23T01:28:00;17.80;;;11.80;;
71080;SDS011;58740;50.672;18.690;2022-07-23T01:30:28;19.00;;;12.00;;
71080;SDS011;58740;50.672;18.690;2022-07-23T01:32:56;16.80;;;11.80;;
71080;SDS011;58740;50.672;18.690;2022-07-23T01:35:23;16.60;;;11.00;;
71080;SDS011;58740;50.672;18.690;2022-07-23T01:37:51;18.20;;;11.90;;
71080;SDS011;58740;50.672;18.690;2022-07-23T01:40:20;15.20;;;11.00;;
71080;SDS011;58740;50.672;18.690;2022-07-23T01:42:49;15.30;;;10.80;;
71080;SDS011;58740;50.672;18.690;2022-07-23T01:45:17;15.60;;;11.00;;
71080;SDS011;58740;50.672;18.690;2022-07-23T01:47:45;15.30;;;11.10;;
71080;SDS011;58740;50.672;18.690;2022-07-23T01:50:14;16.50;;;10.90;;
71080;SDS011;58740;50.672;18.690;2022-07-23T01:52:41;15.80;;;11.30;;
71080;SDS011;58740;50.672;18.690;2022-07-23T01:55:09;17.70;;;11.10;;
71080;SDS011;58740;50.672;18.690;2022-07-23T01:57:45;16.00;;;11.80;;
71080;SDS011;58740;50.672;18.690;2022-07-23T02:00:14;16.60;;;11.30;;
71080;SDS011;58740;50.672;18.690;2022-07-23T02:02:42;15.70;;;10.90;;
71080;SDS011;58740;50.672;18.690;2022-07-23T02:05:10;17.00;;;12.40;;
71080;SDS011;58740;50.672;18.690;2022-07-23T02:07:38;16.90;;;12.10;;
71080;SDS011;58740;50.672;18.690;2022-07-23T02:10:06;17.20;;;11.80;;
71080;SDS011;58740;50.672;18.690;2022-07-23T02:12:35;17.70;;;11.10;;
71080;SDS011;58740;50.672;18.690;2022-07-23T02:15:03;16.90;;;11.60;;
71080;SDS011;58740;50.672;18.690;2022-07-23T02:17:32;17.70;;;10.80;;
71080;SDS011;58740;50.672;18.690;2022-07-23T02:19:59;17.90;;;11.90;;
71080;SDS011;58740;50.672;18.690;2022-07-23T02:22:27;13.90;;;10.80;;
71080;SDS011;58740;50.672;18.690;2022-07-23T02:24:55;15.80;;;11.00;;
71080;SDS011;58740;50.672;18.690;2022-07-23T02:27:22;17.30;;;11.70;;
71080;SDS011;58740;50.672;18.690;2022-07-23T02:29:50;16.00;;;12.50;;
71080;SDS011;58740;50.672;18.690;2022-07-23T02:32:18;15.80;;;11.50;;
71080;SDS011;58740;50.672;18.690;2022-07-23T02:34:45;17.90;;;11.60;;
71080;SDS011;58740;50.672;18.690;2022-07-23T02:37:13;16.30;;;11.50;;
71080;SDS011;58740;50.672;18.690;2022-07-23T02:39:41;16.00;;;11.10;;
71080;SDS011;58740;50.672;18.690;2022-07-23T02:42:09;17.90;;;11.50;;
71080;SDS011;58740;50.672;18.690;2022-07-23T02:44:37;16.20;;;11.70;;
71080;SDS011;58740;50.672;18.690;2022-07-23T02:47:05;17.60;;;11.40;;
71080;SDS011;58740;50.672;18.690;2022-07-23T02:49:33;16.80;;;11.40;;
71080;SDS011;58740;50.672;18.690;2022-07-23T02:52:01;20.20;;;11.90;;
71080;SDS011;58740;50.672;18.690;2022-07-23T02:54:30;16.30;;;11.40;;
71080;SDS011;58740;50.672;18.690;2022-07-23T02:56:57;16.40;;;11.60;;
71080;SDS011;58740;50.672;18.690;2022-07-23T02:59:25;16.20;;;11.00;;
71080;SDS011;58740;50.672;18.690;2022-07-23T03:01:52;16.00;;;11.20;;
71080;SDS011;58740;50.672;18.690;2022-07-23T03:04:20;16.10;;;11.00;;
71080;SDS011;58740;50.672;18.690;2022-07-23T03:06:48;16.60;;;11.50;;
71080;SDS011;58740;50.672;18.690;2022-07-23T03:09:16;18.60;;;11.60;;
71080;SDS011;58740;50.672;18.690;2022-07-23T03:11:43;16.60;;;11.70;;
71080;SDS011;58740;50.672;18.690;2022-07-23T03:14:11;16.50;;;11.20;;
71080;SDS011;58740;50.672;18.690;2022-07-23T03:16:40;15.20;;;10.50;;
71080;SDS011;58740;50.672;18.690;2022-07-23T03:19:08;15.00;;;11.00;;
71080;SDS011;58740;50.672;18.690;2022-07-23T03:21:36;14.70;;;10.40;;
71080;SDS011;58740;50.672;18.690;2022-07-23T03:24:08;15.20;;;10.40;;
71080;SDS011;58740;50.672;18.690;2022-07-23T03:26:37;16.80;;;11.70;;
71080;SDS011;58740;50.672;18.690;2022-07-23T03:29:05;18.30;;;11.40;;
71080;SDS011;58740;50.672;18.690;2022-07-23T03:31:32;20.70;;;11.30;;
71080;SDS011;58740;50.672;18.690;2022-07-23T03:34:00;17.50;;;10.90;;
71080;SDS011;58740;50.672;18.690;2022-07-23T03:36:28;19.40;;;11.80;;
71080;SDS011;58740;50.672;18.690;2022-07-23T03:38:56;16.10;;;12.20;;
71080;SDS011;58740;50.672;18.690;2022-07-23T03:41:27;17.40;;;11.80;;
71080;SDS011;58740;50.672;18.690;2022-07-23T03:43:56;19.50;;;11.70;;
71080;SDS011;58740;50.672;18.690;2022-07-23T03:46:24;17.80;;;11.50;;
71080;SDS011;58740;50.672;18.690;2022-07-23T03:48:51;19.80;;;12.10;;
71080;SDS011;58740;50.672;18.690;2022-07-23T03:51:25;20.60;;;11.60;;
71080;SDS011;58740;50.672;18.690;2022-07-23T03:53:53;19.10;;;13.20;;
71080;SDS011;58740;50.672;18.690;2022-07-23T03:56:21;18.70;;;11.70;;
71080;SDS011;58740;50.672;18.690;2022-07-23T03:58:49;17.50;;;11.70;;
71080;SDS011;58740;50.672;18.690;2022-07-23T04:01:17;16.40;;;11.40;;
71080;SDS011;58740;50.672;18.690;2022-07-23T04:03:45;19.50;;;11.50;;
71080;SDS011;58740;50.672;18.690;2022-07-23T04:06:14;14.80;;;11.00;;
71080;SDS011;58740;50.672;18.690;2022-07-23T04:08:41;15.70;;;11.20;;
71080;SDS011;58740;50.672;18.690;2022-07-23T04:11:09;20.20;;;11.60;;
71080;SDS011;58740;50.672;18.690;2022-07-23T04:13:37;15.80;;;10.70;;
71080;SDS011;58740;50.672;18.690;2022-07-23T04:16:05;19.20;;;11.30;;
71080;SDS011;58740;50.672;18.690;2022-07-23T04:18:34;18.00;;;10.70;;
71080;SDS011;58740;50.672;18.690;2022-07-23T04:21:01;20.50;;;10.60;;
71080;SDS011;58740;50.672;18.690;2022-07-23T04:23:29;19.90;;;10.80;;
71080;SDS011;58740;50.672;18.690;2022-07-23T04:25:57;14.70;;;10.40;;
71080;SDS011;58740;50.672;18.690;2022-07-23T04:28:25;13.00;;;9.60;;
71080;SDS011;58740;50.672;18.690;2022-07-23T04:30:52;13.80;;;9.50;;
71080;SDS011;58740;50.672;18.690;2022-07-23T04:33:23;13.80;;;9.60;;
71080;SDS011;58740;50.672;18.690;2022-07-23T04:35:51;15.00;;;10.00;;
71080;SDS011;58740;50.672;18.690;2022-07-23T04:38:19;13.60;;;9.80;;
71080;SDS011;58740;50.672;18.690;2022-07-23T04:40:47;14.70;;;9.80;;
71080;SDS011;58740;50.672;18.690;2022-07-23T04:43:15;14.00;;;10.40;;
71080;SDS011;58740;50.672;18.690;2022-07-23T04:45:42;15.90;;;10.60;;
71080;SDS011;58740;50.672;18.690;2022-07-23T04:48:10;14.60;;;10.50;;
71080;SDS011;58740;50.672;18.690;2022-07-23T04:50:38;17.00;;;10.70;;
71080;SDS011;58740;50.672;18.690;2022-07-23T04:53:06;15.60;;;11.00;;
71080;SDS011;58740;50.672;18.690;2022-07-23T04:55:34;15.20;;;10.40;;
71080;SDS011;58740;50.672;18.690;2022-07-23T04:58:01;17.80;;;10.00;;
71080;SDS011;58740;50.672;18.690;2022-07-23T05:00:29;15.80;;;10.20;;
71080;SDS011;58740;50.672;18.690;2022-07-23T05:02:57;16.00;;;11.00;;
71080;SDS011;58740;50.672;18.690;2022-07-23T05:05:24;18.20;;;10.40;;
71080;SDS011;58740;50.672;18.690;2022-07-23T05:07:52;17.90;;;11.10;;
71080;SDS011;58740;50.672;18.690;2022-07-23T05:10:20;15.40;;;10.20;;
71080;SDS011;58740;50.672;18.690;2022-07-23T05:12:47;15.40;;;10.60;;
71080;SDS011;58740;50.672;18.690;2022-07-23T05:15:15;13.30;;;10.30;;
71080;SDS011;58740;50.672;18.690;2022-07-23T05:17:43;13.60;;;10.60;;
71080;SDS011;58740;50.672;18.690;2022-07-23T05:20:11;16.40;;;10.70;;
71080;SDS011;58740;50.672;18.690;2022-07-23T05:22:38;14.00;;;10.00;;
71080;SDS011;58740;50.672;18.690;2022-07-23T05:25:07;14.80;;;9.50;;
71080;SDS011;58740;50.672;18.690;2022-07-23T05:27:35;16.60;;;10.10;;
71080;SDS011;58740;50.672;18.690;2022-07-23T05:30:03;15.80;;;9.60;;
71080;SDS011;58740;50.672;18.690;2022-07-23T05:32:32;16.70;;;10.10;;
71080;SDS011;58740;50.672;18.690;2022-07-23T05:35:00;17.00;;;10.60;;
71080;SDS011;58740;50.672;18.690;2022-07-23T05:37:28;17.80;;;9.70;;
71080;SDS011;58740;50.672;18.690;2022-07-23T05:40:01;15.20;;;10.60;;
71080;SDS011;58740;50.672;18.690;2022-07-23T05:42:30;16.80;;;9.70;;
71080;SDS011;58740;50.672;18.690;2022-07-23T05:44:57;15.50;;;9.70;;
71080;SDS011;58740;50.672;18.690;2022-07-23T05:47:25;16.10;;;9.80;;
71080;SDS011;58740;50.672;18.690;2022-07-23T05:49:53;14.30;;;9.00;;
71080;SDS011;58740;50.672;18.690;2022-07-23T05:52:24;12.00;;;8.90;;
71080;SDS011;58740;50.672;18.690;2022-07-23T05:54:51;12.30;;;8.40;;
71080;SDS011;58740;50.672;18.690;2022-07-23T05:57:19;12.00;;;9.00;;
71080;SDS011;58740;50.672;18.690;2022-07-23T05:59:51;14.10;;;9.30;;
71080;SDS011;58740;50.672;18.690;2022-07-23T06:02:19;12.40;;;8.30;;
71080;SDS011;58740;50.672;18.690;2022-07-23T06:04:47;12.60;;;9.20;;
71080;SDS011;58740;50.672;18.690;2022-07-23T06:07:14;14.20;;;9.00;;
71080;SDS011;58740;50.672;18.690;2022-07-23T06:09:42;11.50;;;8.80;;
71080;SDS011;58740;50.672;18.690;2022-07-23T06:12:10;14.60;;;9.20;;
71080;SDS011;58740;50.672;18.690;2022-07-23T06:14:37;13.10;;;8.60;;
71080;SDS011;58740;50.672;18.690;2022-07-23T06:17:05;16.70;;;9.10;;
71080;SDS011;58740;50.672;18.690;2022-07-23T06:19:33;14.40;;;8.90;;
71080;SDS011;58740;50.672;18.690;2022-07-23T06:22:00;11.90;;;8.30;;
71080;SDS011;58740;50.672;18.690;2022-07-23T06:24:28;12.40;;;8.90;;
71080;SDS011;58740;50.672;18.690;2022-07-23T06:26:56;11.80;;;8.90;;
71080;SDS011;58740;50.672;18.690;2022-07-23T06:29:24;12.30;;;9.10;;
71080;SDS011;58740;50.672;18.690;2022-07-23T06:31:51;11.40;;;9.10;;
71080;SDS011;58740;50.672;18.690;2022-07-23T06:34:19;13.00;;;8.40;;
71080;SDS011;58740;50.672;18.690;2022-07-23T06:36:46;10.40;;;8.40;;
71080;SDS011;58740;50.672;18.690;2022-07-23T06:39:14;11.20;;;8.10;;
71080;SDS011;58740;50.672;18.690;2022-07-23T06:41:43;13.20;;;8.40;;
71080;SDS011;58740;50.672;18.690;2022-07-23T06:44:17;11.40;;;8.20;;
71080;SDS011;58740;50.672;18.690;2022-07-23T06:46:45;13.80;;;8.20;;
71080;SDS011;58740;50.672;18.690;2022-07-23T06:49:13;11.10;;;7.60;;
71080;SDS011;58740;50.672;18.690;2022-07-23T06:51:41;11.90;;;8.00;;
71080;SDS011;58740;50.672;18.690;2022-07-23T06:54:09;11.40;;;8.40;;
71080;SDS011;58740;50.672;18.690;2022-07-23T06:56:37;11.60;;;8.50;;
71080;SDS011;58740;50.672;18.690;2022-07-23T06:59:05;11.20;;;7.90;;
71080;SDS011;58740;50.672;18.690;2022-07-23T07:01:33;9.70;;;6.40;;
71080;SDS011;58740;50.672;18.690;2022-07-23T07:04:01;11.30;;;7.50;;
71080;SDS011;58740;50.672;18.690;2022-07-23T07:06:28;12.60;;;7.60;;
71080;SDS011;58740;50.672;18.690;2022-07-23T07:08:56;11.50;;;6.60;;
71080;SDS011;58740;50.672;18.690;2022-07-23T07:11:24;12.10;;;7.70;;
71080;SDS011;58740;50.672;18.690;2022-07-23T07:13:52;10.40;;;8.00;;
71080;SDS011;58740;50.672;18.690;2022-07-23T07:16:20;10.80;;;6.70;;
71080;SDS011;58740;50.672;18.690;2022-07-23T07:18:48;10.90;;;7.30;;
71080;SDS011;58740;50.672;18.690;2022-07-23T07:21:16;11.20;;;7.50;;
71080;SDS011;58740;50.672;18.690;2022-07-23T07:23:43;14.10;;;7.70;;
71080;SDS011;58740;50.672;18.690;2022-07-23T07:26:11;10.40;;;7.10;;
71080;SDS011;58740;50.672;18.690;2022-07-23T07:28:39;8.90;;;6.40;;
71080;SDS011;58740;50.672;18.690;2022-07-23T07:31:06;10.60;;;6.50;;
71080;SDS011;58740;50.672;18.690;2022-07-23T07:33:34;10.00;;;7.10;;
71080;SDS011;58740;50.672;18.690;2022-07-23T07:36:02;9.60;;;6.10;;
71080;SDS011;58740;50.672;18.690;2022-07-23T07:38:31;11.70;;;6.80;;
71080;SDS011;58740;50.672;18.690;2022-07-23T07:40:58;9.50;;;6.30;;
71080;SDS011;58740;50.672;18.690;2022-07-23T07:43:26;8.80;;;6.30;;
71080;SDS011;58740;50.672;18.690;2022-07-23T07:45:54;9.30;;;6.10;;
71080;SDS011;58740;50.672;18.690;2022-07-23T07:48:22;12.50;;;5.90;;
71080;SDS011;58740;50.672;18.690;2022-07-23T07:50:49;9.40;;;6.10;;
71080;SDS011;58740;50.672;18.690;2022-07-23T07:53:18;8.30;;;6.20;;
71080;SDS011;58740;50.672;18.690;2022-07-23T07:55:45;9.70;;;6.10;;
71080;SDS011;58740;50.672;18.690;2022-07-23T07:58:18;9.50;;;6.50;;
71080;SDS011;58740;50.672;18.690;2022-07-23T08:00:46;9.90;;;6.50;;
71080;SDS011;58740;50.672;18.690;2022-07-23T08:03:13;8.40;;;6.30;;
71080;SDS011;58740;50.672;18.690;2022-07-23T08:05:42;8.50;;;5.70;;
71080;SDS011;58740;50.672;18.690;2022-07-23T08:08:10;10.70;;;6.80;;
71080;SDS011;58740;50.672;18.690;2022-07-23T08:10:42;8.10;;;5.90;;
71080;SDS011;58740;50.672;18.690;2022-07-23T08:13:15;9.10;;;6.60;;
71080;SDS011;58740;50.672;18.690;2022-07-23T08:15:44;9.30;;;6.50;;
71080;SDS011;58740;50.672;18.690;2022-07-23T08:18:13;10.40;;;7.30;;
71080;SDS011;58740;50.672;18.690;2022-07-23T08:20:41;9.70;;;6.70;;
71080;SDS011;58740;50.672;18.690;2022-07-23T08:23:09;10.70;;;6.90;;
71080;SDS011;58740;50.672;18.690;2022-07-23T08:25:39;8.60;;;6.30;;
71080;SDS011;58740;50.672;18.690;2022-07-23T08:28:11;9.70;;;6.00;;
71080;SDS011;58740;50.672;18.690;2022-07-23T08:30:42;7.40;;;5.60;;
71080;SDS011;58740;50.672;18.690;2022-07-23T08:33:13;9.20;;;5.60;;
71080;SDS011;58740;50.672;18.690;2022-07-23T08:36:01;8.20;;;6.00;;
71080;SDS011;58740;50.672;18.690;2022-07-23T08:38:32;10.00;;;6.30;;
71080;SDS011;58740;50.672;18.690;2022-07-23T08:41:00;9.70;;;6.40;;
71080;SDS011;58740;50.672;18.690;2022-07-23T08:43:31;9.80;;;6.00;;
71080;SDS011;58740;50.672;18.690;2022-07-23T08:46:01;9.10;;;6.20;;
71080;SDS011;58740;50.672;18.690;2022-07-23T08:48:33;8.30;;;5.70;;
71080;SDS011;58740;50.672;18.690;2022-07-23T08:51:06;9.40;;;6.60;;
71080;SDS011;58740;50.672;18.690;2022-07-23T08:53:35;13.50;;;7.30;;
71080;SDS011;58740;50.672;18.690;2022-07-23T08:56:05;11.80;;;6.60;;
71080;SDS011;58740;50.672;18.690;2022-07-23T08:58:35;10.60;;;6.40;;
71080;SDS011;58740;50.672;18.690;2022-07-23T09:01:02;8.30;;;6.50;;
71080;SDS011;58740;50.672;18.690;2022-07-23T09:03:33;9.50;;;6.50;;
71080;SDS011;58740;50.672;18.690;2022-07-23T09:06:02;9.40;;;6.90;;
71080;SDS011;58740;50.672;18.690;2022-07-23T09:08:41;11.70;;;7.10;;
71080;SDS011;58740;50.672;18.690;2022-07-23T09:11:12;10.50;;;7.00;;
71080;SDS011;58740;50.672;18.690;2022-07-23T09:16:28;14.10;;;7.30;;
71080;SDS011;58740;50.672;18.690;2022-07-23T09:19:00;12.20;;;7.30;;
71080;SDS011;58740;50.672;18.690;2022-07-23T09:21:36;10.30;;;6.70;;
71080;SDS011;58740;50.672;18.690;2022-07-23T09:24:12;10.40;;;7.10;;
71080;SDS011;58740;50.672;18.690;2022-07-23T09:26:47;10.60;;;6.80;;
71080;SDS011;58740;50.672;18.690;2022-07-23T09:29:22;11.80;;;7.00;;
71080;SDS011;58740;50.672;18.690;2022-07-23T09:31:59;11.40;;;7.20;;
71080;SDS011;58740;50.672;18.690;2022-07-23T09:34:34;11.60;;;7.30;;
71080;SDS011;58740;50.672;18.690;2022-07-23T09:37:17;9.00;;;6.30;;
71080;SDS011;58740;50.672;18.690;2022-07-23T09:39:47;9.20;;;6.10;;
71080;SDS011;58740;50.672;18.690;2022-07-23T09:42:18;8.50;;;6.10;;
71080;SDS011;58740;50.672;18.690;2022-07-23T09:44:53;8.50;;;5.80;;
71080;SDS011;58740;50.672;18.690;2022-07-23T09:47:24;8.50;;;6.20;;
71080;SDS011;58740;50.672;18.690;2022-07-23T09:52:45;11.20;;;6.70;;
71080;SDS011;58740;50.672;18.690;2022-07-23T09:55:17;7.00;;;5.40;;
71080;SDS011;58740;50.672;18.690;2022-07-23T09:57:46;8.00;;;5.50;;
71080;SDS011;58740;50.672;18.690;2022-07-23T10:00:19;7.60;;;5.80;;
71080;SDS011;58740;50.672;18.690;2022-07-23T10:02:47;8.60;;;5.80;;
71080;SDS011;58740;50.672;18.690;2022-07-23T10:05:17;8.40;;;5.20;;
71080;SDS011;58740;50.672;18.690;2022-07-23T10:07:45;7.30;;;4.90;;
71080;SDS011;58740;50.672;18.690;2022-07-23T10:10:21;10.00;;;5.70;;
71080;SDS011;58740;50.672;18.690;2022-07-23T10:12:51;8.40;;;5.10;;
71080;SDS011;58740;50.672;18.690;2022-07-23T10:15:29;9.10;;;5.70;;
71080;SDS011;58740;50.672;18.690;2022-07-23T10:17:57;7.40;;;5.10;;
71080;SDS011;58740;50.672;18.690;2022-07-23T10:20:25;10.40;;;5.00;;
71080;SDS011;58740;50.672;18.690;2022-07-23T10:23:00;7.10;;;4.80;;
71080;SDS011;58740;50.672;18.690;2022-07-23T10:32:06;6.60;;;4.70;;
71080;SDS011;58740;50.672;18.690;2022-07-23T10:35:04;7.70;;;4.70;;
71080;SDS011;58740;50.672;18.690;2022-07-23T10:37:47;7.40;;;4.80;;
71080;SDS011;58740;50.672;18.690;2022-07-23T10:40:18;7.80;;;5.00;;
71080;SDS011;58740;50.672;18.690;2022-07-23T10:42:50;8.60;;;5.90;;
71080;SDS011;58740;50.672;18.690;2022-07-23T10:45:29;8.50;;;5.90;;
71080;SDS011;58740;50.672;18.690;2022-07-23T10:51:14;8.50;;;5.40;;
71080;SDS011;58740;50.672;18.690;2022-07-23T10:56:48;10.60;;;5.90;;
71080;SDS011;58740;50.672;18.690;2022-07-23T10:59:26;9.60;;;5.30;;
71080;SDS011;58740;50.672;18.690;2022-07-23T11:02:23;9.50;;;5.50;;
71080;SDS011;58740;50.672;18.690;2022-07-23T11:04:52;8.70;;;5.30;;
71080;SDS011;58740;50.672;18.690;2022-07-23T11:07:20;13.30;;;6.30;;
71080;SDS011;58740;50.672;18.690;2022-07-23T11:09:49;8.50;;;6.60;;
71080;SDS011;58740;50.672;18.690;2022-07-23T11:25:34;9.10;;;6.70;;
71080;SDS011;58740;50.672;18.690;2022-07-23T11:28:16;9.50;;;6.60;;
71080;SDS011;58740;50.672;18.690;2022-07-23T11:30:48;8.70;;;6.30;;
71080;SDS011;58740;50.672;18.690;2022-07-23T11:33:18;9.20;;;6.10;;
71080;SDS011;58740;50.672;18.690;2022-07-23T11:35:49;9.40;;;6.80;;
71080;SDS011;58740;50.672;18.690;2022-07-23T11:38:30;10.00;;;6.80;;
71080;SDS011;58740;50.672;18.690;2022-07-23T11:41:00;8.50;;;5.60;;
71080;SDS011;58740;50.672;18.690;2022-07-23T11:43:28;8.50;;;6.70;;
71080;SDS011;58740;50.672;18.690;2022-07-23T11:45:59;9.60;;;8.30;;
71080;SDS011;58740;50.672;18.690;2022-07-23T11:48:30;10.50;;;6.80;;
71080;SDS011;58740;50.672;18.690;2022-07-23T11:51:02;12.70;;;7.50;;
71080;SDS011;58740;50.672;18.690;2022-07-23T11:53:32;10.00;;;6.50;;
71080;SDS011;58740;50.672;18.690;2022-07-23T11:56:09;10.50;;;6.90;;
71080;SDS011;58740;50.672;18.690;2022-07-23T11:58:39;11.00;;;6.70;;
71080;SDS011;58740;50.672;18.690;2022-07-23T12:01:21;9.00;;;7.00;;
71080;SDS011;58740;50.672;18.690;2022-07-23T12:03:50;9.50;;;7.40;;
71080;SDS011;58740;50.672;18.690;2022-07-23T12:06:19;9.90;;;7.40;;
71080;SDS011;58740;50.672;18.690;2022-07-23T12:08:47;13.10;;;7.20;;
71080;SDS011;58740;50.672;18.690;2022-07-23T12:11:15;10.40;;;7.30;;
71080;SDS011;58740;50.672;18.690;2022-07-23T12:13:42;10.50;;;7.20;;
71080;SDS011;58740;50.672;18.690;2022-07-23T12:16:10;11.10;;;6.30;;
71080;SDS011;58740;50.672;18.690;2022-07-23T12:18:38;9.50;;;6.40;;
71080;SDS011;58740;50.672;18.690;2022-07-23T12:21:07;11.20;;;6.20;;
71080;SDS011;58740;50.672;18.690;2022-07-23T12:23:36;8.90;;;6.70;;
71080;SDS011;58740;50.672;18.690;2022-07-23T12:26:05;10.30;;;6.80;;
71080;SDS011;58740;50.672;18.690;2022-07-23T12:28:34;10.20;;;6.60;;
71080;SDS011;58740;50.672;18.690;2022-07-23T12:31:05;9.00;;;6.70;;
71080;SDS011;58740;50.672;18.690;2022-07-23T12:33:35;11.80;;;7.30;;
71080;SDS011;58740;50.672;18.690;2022-07-23T12:36:09;10.00;;;6.40;;
71080;SDS011;58740;50.672;18.690;2022-07-23T12:38:41;8.70;;;6.00;;
71080;SDS011;58740;50.672;18.690;2022-07-23T12:41:11;10.20;;;6.50;;
71080;SDS011;58740;50.672;18.690;2022-07-23T12:43:40;8.80;;;7.10;;
71080;SDS011;58740;50.672;18.690;2022-07-23T12:46:20;11.20;;;7.50;;
71080;SDS011;58740;50.672;18.690;2022-07-23T12:51:25;10.30;;;7.00;;
71080;SDS011;58740;50.672;18.690;2022-07-23T12:54:04;8.70;;;7.40;;
71080;SDS011;58740;50.672;18.690;2022-07-23T12:56:43;10.00;;;6.90;;
71080;SDS011;58740;50.672;18.690;2022-07-23T12:59:15;9.70;;;6.90;;
71080;SDS011;58740;50.672;18.690;2022-07-23T13:01:57;10.00;;;7.40;;
71080;SDS011;58740;50.672;18.690;2022-07-23T13:04:29;12.00;;;7.30;;
71080;SDS011;58740;50.672;18.690;2022-07-23T13:06:59;12.60;;;8.30;;
71080;SDS011;58740;50.672;18.690;2022-07-23T13:09:33;12.50;;;8.40;;
71080;SDS011;58740;50.672;18.690;2022-07-23T13:12:08;12.70;;;7.80;;
71080;SDS011;58740;50.672;18.690;2022-07-23T13:14:38;10.30;;;7.20;;
71080;SDS011;58740;50.672;18.690;2022-07-23T13:17:06;21.70;;;7.30;;
71080;SDS011;58740;50.672;18.690;2022-07-23T13:19:34;20.50;;;8.00;;
71080;SDS011;58740;50.672;18.690;2022-07-23T13:22:01;13.20;;;7.50;;
71080;SDS011;58740;50.672;18.690;2022-07-23T13:24:36;16.30;;;7.90;;
71080;SDS011;58740;50.672;18.690;2022-07-23T13:27:06;12.30;;;7.60;;
71080;SDS011;58740;50.672;18.690;2022-07-23T13:29:39;12.40;;;8.90;;
71080;SDS011;58740;50.672;18.690;2022-07-23T13:32:08;13.40;;;8.70;;
71080;SDS011;58740;50.672;18.690;2022-07-23T13:34:37;13.10;;;9.20;;
71080;SDS011;58740;50.672;18.690;2022-07-23T13:37:07;16.10;;;10.10;;
71080;SDS011;58740;50.672;18.690;2022-07-23T13:39:35;14.40;;;10.00;;
71080;SDS011;58740;50.672;18.690;2022-07-23T13:42:06;12.40;;;8.90;;
71080;SDS011;58740;50.672;18.690;2022-07-23T13:44:35;13.10;;;9.00;;
71080;SDS011;58740;50.672;18.690;2022-07-23T13:47:03;14.60;;;9.60;;
71080;SDS011;58740;50.672;18.690;2022-07-23T13:49:31;12.60;;;9.50;;
71080;SDS011;58740;50.672;18.690;2022-07-23T13:52:03;13.00;;;9.90;;
71080;SDS011;58740;50.672;18.690;2022-07-23T13:54:34;14.50;;;9.80;;
71080;SDS011;58740;50.672;18.690;2022-07-23T13:57:03;12.20;;;9.80;;
71080;SDS011;58740;50.672;18.690;2022-07-23T13:59:32;12.50;;;8.50;;
71080;SDS011;58740;50.672;18.690;2022-07-23T14:02:01;15.80;;;10.00;;
71080;SDS011;58740;50.672;18.690;2022-07-23T14:04:51;11.60;;;9.50;;
71080;SDS011;58740;50.672;18.690;2022-07-23T14:07:20;13.80;;;9.20;;
71080;SDS011;58740;50.672;18.690;2022-07-23T14:09:48;12.70;;;10.00;;
71080;SDS011;58740;50.672;18.690;2022-07-23T14:12:16;14.20;;;10.30;;
71080;SDS011;58740;50.672;18.690;2022-07-23T14:14:44;14.10;;;10.60;;
71080;SDS011;58740;50.672;18.690;2022-07-23T14:17:12;13.80;;;10.30;;
71080;SDS011;58740;50.672;18.690;2022-07-23T14:19:40;12.40;;;9.60;;
71080;SDS011;58740;50.672;18.690;2022-07-23T14:22:09;12.30;;;9.40;;
71080;SDS011;58740;50.672;18.690;2022-07-23T14:24:36;12.00;;;8.90;;
71080;SDS011;58740;50.672;18.690;2022-07-23T14:27:05;12.60;;;9.70;;
71080;SDS011;58740;50.672;18.690;2022-07-23T14:29:33;14.30;;;10.50;;
71080;SDS011;58740;50.672;18.690;2022-07-23T14:32:02;15.40;;;10.80;;
71080;SDS011;58740;50.672;18.690;2022-07-23T14:34:30;11.60;;;9.30;;
71080;SDS011;58740;50.672;18.690;2022-07-23T14:37:01;14.00;;;9.90;;
71080;SDS011;58740;50.672;18.690;2022-07-23T14:39:30;13.10;;;9.90;;
71080;SDS011;58740;50.672;18.690;2022-07-23T14:41:58;13.80;;;10.60;;
71080;SDS011;58740;50.672;18.690;2022-07-23T14:44:26;13.10;;;10.00;;
71080;SDS011;58740;50.672;18.690;2022-07-23T14:46:55;14.00;;;9.90;;
71080;SDS011;58740;50.672;18.690;2022-07-23T14:49:23;13.50;;;9.70;;
71080;SDS011;58740;50.672;18.690;2022-07-23T14:51:54;13.60;;;9.70;;
71080;SDS011;58740;50.672;18.690;2022-07-23T14:54:24;13.30;;;9.60;;
71080;SDS011;58740;50.672;18.690;2022-07-23T14:56:54;12.50;;;10.10;;
71080;SDS011;58740;50.672;18.690;2022-07-23T14:59:23;15.50;;;10.50;;
71080;SDS011;58740;50.672;18.690;2022-07-23T15:01:52;13.10;;;9.00;;
71080;SDS011;58740;50.672;18.690;2022-07-23T15:04:21;13.70;;;9.60;;
71080;SDS011;58740;50.672;18.690;2022-07-23T15:07:05;12.00;;;9.40;;